Date,TemperatureHighF,TemperatureAvgF,TemperatureLowF,DewpointHighF,DewpointAvgF,DewpointLowF,HumidityHigh,HumidityAvg,HumidityLow,PressureMaxIn,PressureMinIn,WindSpeedMaxMPH,WindSpeedAvgMPH,GustSpeedMaxMPH,PrecipitationSumIn
2013-1-1,46.0,30.2,16.7,28.2,16.0,4.2,71,56,40,29.91,29.67,23,7,23,0.00
2013-1-2,29.1,18.2,6.2,15.9,5.6,-6.5,65,58,47,30.10,29.88,18,7,19,0.00
2013-1-3,27.1,13.7,2.7,2.7,-2.4,-7.3,66,50,31,30.12,29.98,16,6,16,0.00
2013-1-4,36.8,28.0,13.4,22.5,17.6,0.4,78,65,53,29.98,29.77,12,4,12,0.00
2013-1-5,43.1,32.7,22.6,23.9,18.3,13.5,74,56,37,30.26,29.79,17,4,17,0.00
2013-1-6,43.5,32.1,22.6,28.0,23.4,15.0,85,70,52,30.23,29.92,10,2,10,0.00
2013-1-7,52.7,33.3,24.1,37.3,24.8,18.0,83,71,50,30.41,29.94,12,2,12,0.00
2013-1-8,45.7,35.2,24.4,30.3,24.6,20.0,87,67,45,30.36,30.23,14,3,14,0.00
2013-1-9,42.1,35.4,25.9,32.4,26.7,19.8,80,70,57,30.40,29.95,16,4,16,0.00
2013-1-10,50.2,41.9,31.8,29.3,25.2,22.1,69,52,38,30.53,29.98,29,10,29,0.00
2013-1-11,43.0,35.4,26.0,35.1,27.8,19.8,89,74,61,30.52,30.23,10,2,10,0.03
2013-1-12,44.6,40.4,37.7,41.4,37.6,34.7,93,90,86,30.24,30.12,10,2,10,0.01
2013-1-13,48.7,43.9,39.5,46.5,42.1,37.6,95,93,89,30.15,29.97,7,2,7,0.00
2013-1-14,63.4,49.5,39.5,49.8,41.4,26.4,92,75,44,30.22,29.81,13,4,13,0.00
2013-1-15,44.4,37.3,31.6,30.0,26.0,22.1,73,63,54,30.31,30.22,5,2,6,0.00
2013-1-16,34.3,31.3,29.0,30.2,26.4,21.8,92,82,67,30.25,29.80,5,1,5,0.01
2013-1-17,42.4,33.0,26.2,32.2,24.6,8.6,93,72,47,30.10,29.80,16,4,16,0.19
2013-1-18,27.5,20.7,14.5,10.5,0.6,-5.6,55,42,29,30.44,30.05,18,5,18,0.00
2013-1-19,47.6,34.7,18.5,27.0,19.3,5.0,69,54,39,30.37,29.86,16,4,16,0.00
2013-1-20,53.4,39.8,26.6,31.9,22.8,8.6,71,52,24,29.89,29.49,31,9,31,0.00
2013-1-21,29.2,24.2,19.7,16.0,6.4,-2.1,77,48,34,30.08,29.78,22,5,22,0.00
2013-1-22,31.6,21.3,11.6,16.5,8.3,-3.5,80,59,32,30.06,29.74,20,6,20,0.00
2013-1-23,22.1,10.8,2.3,-0.3,-8.1,-14.4,59,43,28,30.13,30.04,18,7,19,0.00
2013-1-24,18.2,8.7,-1.1,-4.9,-10.2,-15.3,56,42,30,30.18,30.02,24,11,24,0.00
2013-1-25,23.4,14.6,6.1,-0.5,-5.3,-8.2,55,41,28,30.26,30.06,24,8,24,0.00
2013-1-26,29.5,18.6,12.1,12.1,2.3,-7.0,77,51,27,30.19,30.00,19,6,19,0.00
2013-1-27,32.1,20.8,12.4,6.0,-0.5,-7.6,61,41,23,30.46,30.18,20,8,20,0.00
2013-1-28,30.7,22.7,15.1,24.3,7.4,-4.6,87,55,27,30.44,30.03,10,2,10,0.00
2013-1-29,38.5,28.1,23.2,29.6,22.7,18.6,87,80,69,30.20,30.03,5,1,5,0.04
2013-1-30,57.8,43.1,31.4,53.7,40.3,27.4,95,90,85,30.16,29.46,9,3,9,0.14
2013-1-31,59.7,43.9,29.5,55.4,31.4,11.4,95,63,40,29.54,28.92,25,13,25,0.35